Berryton, Kansas
Current Conditions -  °F | °C
As of 5:53 PM on Sunday 25 Jan 2015 (Local Time) from KFOE Reporting Station
Overcast Overcast  
Wind Chill: 35°   Ceiling: 2500
Heat Index: 42°   Visibility: 10mi
Dew Point: 30°   Wind: 14mph
Humidity: 62%   Direction: 360°N
Pressure: 30.08"   Gusts: 25mph
Location:  38.94°N, 95.63°W
Report Text: KFOE 252353Z 36012G22KT 10SM OVC025 06/M01 A3008 RMK AO2 SLP189 T00561011 10056 20050 51035
Loading
Personal Weather Stations






























Interactive Weather Map New forecast layout! Learn more

10-Day Weather Forecast

Advertisements
Track Severe Weather on mobile